This is the latest recevied weather packets stored in our database for station/object Cinovec. If no packets are shown the sender has not sent any weather packets the latest 1 day(s).
| Time | Temp. | Humidity | Pressure | Rain* | Wind** | Luminosity | Snow |
|---|---|---|---|---|---|---|---|
| 1778012264 | 11.11° C | 99% | - | - | 5.36 m/s, 10° | - | - |
| 1778008665 | 11.11° C | 99% | - | - | 5.81 m/s, 10° | - | - |
| 1778005050 | 12.22° C | 93% | - | - | 5.81 m/s, 360° | - | - |
| 1778001449 | 12.22° C | 93% | - | - | 5.36 m/s, 350° | - | - |
| 1777997908 | 12.78° C | 93% | - | - | 5.36 m/s, 350° | - | - |
| 1777994247 | 13.89° C | 82% | - | - | 5.81 m/s, 350° | - | - |
| 1777990650 | 13.89° C | 87% | - | - | 5.36 m/s, 10° | - | - |
| 1777987049 | 15° C | 72% | - | - | 5.81 m/s, 350° | - | - |
| 1777983448 | 16.11° C | 67% | - | - | 5.81 m/s, 10° | - | - |
| 1777979849 | 16.11° C | 67% | - | - | 4.47 m/s, 350° | - | - |
| 1777976249 | 15° C | 72% | - | - | 4.47 m/s, 350° | - | - |
| 1777972648 | 15° C | 72% | - | - | 3.13 m/s, 350° | - | - |
| 1777969049 | 13.89° C | 71% | - | - | 4.02 m/s, 360° | - | - |
| 1777965448 | 12.78° C | 82% | - | - | 2.68 m/s, 320° | - | - |
| 1777961849 | 12.22° C | 81% | - | - | 2.68 m/s, 340° | - | - |
| 1777958248 | 12.22° C | 76% | - | - | 2.68 m/s, 10° | - | - |
| 1777954648 | 12.22° C | 76% | - | - | 3.58 m/s, 350° | - | - |
| 1777951048 | 12.22° C | 76% | - | - | 4.02 m/s, 350° | - | - |
| 1777947449 | 12.22° C | 76% | - | - | 3.13 m/s, 350° | - | - |
| 1777943850 | 12.22° C | 76% | - | - | 3.13 m/s, 360° | - | - |
| 1777940249 | 12.78° C | 71% | - | - | 3.58 m/s, 360° | - | - |
| 1777936650 | 12.78° C | 71% | - | - | 3.58 m/s, 40° | - | - |
| 1777933049 | 12.78° C | 71% | - | - | 3.58 m/s, 20° | - | - |
| 1777929448 | 12.78° C | 71% | - | - | 3.13 m/s, 20° | - | - |
* Rain since midnight (hover to see other rain measurements)
** Current wind speed in m/s (hover to see current wind gust speed)